Time,TemperatureF,DewpointF,PressureIn,WindDirection,WindDirectionDegrees,WindSpeedMPH,WindSpeedGustMPH,Humidity,HourlyPrecipIn,Conditions,Clouds,dailyrainin,SoftwareType,DateUTC
2013-01-11 00:02:00,36.0,25.0,30.04,SSE,148,0.0,3.0,63,0.00,,,0.01,,2013-01-11 08:02:00,
2013-01-11 00:11:00,36.0,25.0,30.04,WNW,295,0.0,0.0,63,0.00,,,0.01,,2013-01-11 08:11:00,
2013-01-11 00:22:00,36.0,25.0,30.04,WNW,295,0.0,0.0,63,0.00,,,0.01,,2013-01-11 08:22:00,
2013-01-11 00:32:00,36.0,25.0,30.04,SSW,205,0.0,1.0,64,0.00,,,0.01,,2013-01-11 08:32:00,
2013-01-11 00:42:00,36.0,25.0,30.04,SSW,205,0.0,1.0,64,0.00,,,0.01,,2013-01-11 08:42:00,
2013-01-11 00:52:00,35.0,24.0,30.04,SSE,159,2.0,3.0,64,0.00,,,0.01,,2013-01-11 08:52:00,
2013-01-11 01:02:00,35.0,24.0,30.05,SSE,159,1.0,3.0,64,0.00,,,0.01,,2013-01-11 09:02:00,
2013-01-11 01:11:00,35.0,24.0,30.05,SSE,159,1.0,3.0,64,0.00,,,0.01,,2013-01-11 09:11:00,
2013-01-11 01:22:00,35.0,24.0,30.06,SE,146,0.0,1.0,64,0.00,,,0.01,,2013-01-11 09:22:00,
2013-01-11 01:32:00,35.0,24.0,30.07,SSE,147,1.0,3.0,65,0.00,,,0.01,,2013-01-11 09:32:00,
2013-01-11 01:42:00,35.0,24.0,30.07,SSE,147,1.0,3.0,65,0.00,,,0.01,,2013-01-11 09:42:00,
2013-01-11 01:52:00,34.0,24.0,30.07,SSE,149,1.0,1.0,66,0.00,,,0.01,,2013-01-11 09:52:00,
2013-01-11 02:02:00,34.0,24.0,30.08,SSE,150,0.0,1.0,66,0.00,,,0.01,,2013-01-11 10:02:00,
2013-01-11 02:11:00,34.0,24.0,30.08,SSE,150,0.0,1.0,66,0.00,,,0.01,,2013-01-11 10:11:00,
2013-01-11 02:22:00,34.0,24.0,30.08,East,84,0.0,0.0,67,0.00,,,0.01,,2013-01-11 10:22:00,
2013-01-11 02:32:00,33.0,24.0,30.08,East,80,1.0,3.0,68,0.00,,,0.01,,2013-01-11 10:32:00,
2013-01-11 02:42:00,33.0,24.0,30.08,East,80,1.0,3.0,68,0.00,,,0.01,,2013-01-11 10:42:00,
2013-01-11 02:52:00,33.0,24.0,30.08,SSE,153,0.0,2.0,68,0.00,,,0.01,,2013-01-11 10:52:00,
2013-01-11 03:02:00,33.0,24.0,30.09,SSE,153,0.0,2.0,69,0.00,,,0.01,,2013-01-11 11:02:00,
2013-01-11 03:11:00,33.0,24.0,30.09,SSE,153,0.0,2.0,69,0.00,,,0.01,,2013-01-11 11:11:00,
2013-01-11 03:22:00,33.0,25.0,30.09,SSE,153,0.0,3.0,71,0.00,,,0.01,,2013-01-11 11:22:00,
2013-01-11 03:32:00,33.0,24.0,30.09,SSE,153,0.0,3.0,70,0.00,,,0.01,,2013-01-11 11:32:00,
2013-01-11 03:42:00,33.0,24.0,30.09,SSE,153,0.0,3.0,70,0.00,,,0.01,,2013-01-11 11:42:00,
2013-01-11 03:53:00,32.0,24.0,30.09,SSE,157,0.0,1.0,71,0.00,,,0.01,,2013-01-11 11:53:00,
2013-01-11 04:02:00,32.0,24.0,30.09,ESE,115,0.0,3.0,71,0.00,,,0.01,,2013-01-11 12:02:00,
2013-01-11 04:12:00,32.0,24.0,30.09,ESE,115,0.0,3.0,71,0.00,,,0.01,,2013-01-11 12:12:00,
2013-01-11 04:22:00,32.0,24.0,30.10,South,178,0.0,0.0,71,0.00,,,0.01,,2013-01-11 12:22:00,
2013-01-11 04:32:00,32.0,24.0,30.10,South,178,0.0,2.0,72,0.00,,,0.01,,2013-01-11 12:32:00,
2013-01-11 04:42:00,32.0,24.0,30.10,South,178,0.0,2.0,72,0.00,,,0.01,,2013-01-11 12:42:00,
2013-01-11 04:53:00,32.0,24.0,30.10,SSE,159,0.0,2.0,72,0.00,,,0.01,,2013-01-11 12:53:00,
2013-01-11 05:02:00,32.0,24.0,30.11,SSE,161,1.0,3.0,72,0.00,,,0.01,,2013-01-11 13:02:00,
2013-01-11 05:12:00,32.0,24.0,30.11,SSE,161,1.0,3.0,72,0.00,,,0.01,,2013-01-11 13:12:00,
2013-01-11 05:22:00,31.0,23.0,30.11,SSE,161,0.0,0.0,72,0.00,,,0.01,,2013-01-11 13:22:00,
2013-01-11 05:32:00,31.0,23.0,30.11,SSE,161,0.0,2.0,72,0.00,,,0.01,,2013-01-11 13:32:00,
2013-01-11 05:42:00,31.0,23.0,30.11,SSE,161,0.0,2.0,72,0.00,,,0.01,,2013-01-11 13:42:00,
2013-01-11 05:52:00,31.0,23.0,30.13,SE,132,0.0,0.0,72,0.00,,,0.01,,2013-01-11 13:52:00,
2013-01-11 06:02:00,31.0,23.0,30.13,East,101,2.0,3.0,72,0.00,,,0.01,,2013-01-11 14:02:00,
2013-01-11 06:11:00,31.0,23.0,30.13,East,101,2.0,3.0,72,0.00,,,0.01,,2013-01-11 14:11:00,
2013-01-11 06:22:00,31.0,23.0,30.14,South,170,1.0,1.0,73,0.00,,,0.01,,2013-01-11 14:22:00,
2013-01-11 06:32:00,30.0,22.0,30.14,SSE,163,0.0,2.0,73,0.00,,,0.01,,2013-01-11 14:32:00,
2013-01-11 06:42:00,30.0,22.0,30.14,SSE,163,0.0,0.0,73,0.00,,,0.00,,2013-01-11 14:42:00,
2013-01-11 06:53:00,30.0,22.0,30.14,SSE,163,0.0,0.0,73,0.00,,,0.00,,2013-01-11 14:53:00,
2013-01-11 07:02:00,30.0,23.0,30.14,SSE,155,3.0,3.0,74,0.00,,,0.00,,2013-01-11 15:02:00,
2013-01-11 07:12:00,30.0,23.0,30.14,SSE,148,0.0,0.0,74,0.00,,,0.00,,2013-01-11 15:12:00,
2013-01-11 07:22:00,30.0,23.0,30.14,SSE,148,0.0,0.0,74,0.00,,,0.00,,2013-01-11 15:22:00,
2013-01-11 07:32:00,30.0,23.0,30.14,SSE,155,3.0,3.0,74,0.00,,,0.00,,2013-01-11 15:32:00,
2013-01-11 07:42:00,30.0,23.0,30.14,SSE,155,3.0,3.0,74,0.00,,,0.00,,2013-01-11 15:42:00,
2013-01-11 07:53:00,30.0,23.0,30.15,South,175,0.0,2.0,75,0.00,,,0.00,,2013-01-11 15:53:00,
2013-01-11 08:02:00,30.0,23.0,30.15,SSE,150,0.0,3.0,76,0.00,,,0.00,,2013-01-11 16:02:00,
2013-01-11 08:12:00,30.0,23.0,30.16,SSE,150,0.0,0.0,76,0.00,,,0.00,,2013-01-11 16:12:00,
2013-01-11 08:22:00,30.0,23.0,30.16,SSE,150,0.0,0.0,76,0.00,,,0.00,,2013-01-11 16:22:00,
2013-01-11 08:32:00,31.0,25.0,30.17,SSE,150,0.0,0.0,77,0.00,,,0.00,,2013-01-11 16:32:00,
2013-01-11 08:42:00,31.0,25.0,30.17,SSE,150,0.0,0.0,77,0.00,,,0.00,,2013-01-11 16:42:00,
2013-01-11 08:53:00,32.0,26.0,30.17,SSE,150,0.0,0.0,78,0.00,,,0.00,,2013-01-11 16:53:00,
2013-01-11 09:02:00,32.0,26.0,30.16,SSE,150,0.0,0.0,79,0.00,,,0.00,,2013-01-11 17:02:00,
2013-01-11 09:12:00,34.0,28.0,30.17,SSE,152,0.0,0.0,78,0.00,,,0.00,,2013-01-11 17:12:00,
2013-01-11 09:22:00,34.0,28.0,30.17,SSE,152,0.0,0.0,78,0.00,,,0.00,,2013-01-11 17:22:00,
2013-01-11 09:32:00,35.0,29.0,30.17,SSE,152,0.0,0.0,78,0.00,,,0.00,,2013-01-11 17:32:00,
2013-01-11 09:42:00,35.0,29.0,30.17,SSE,152,0.0,0.0,78,0.00,,,0.00,,2013-01-11 17:42:00,
2013-01-11 09:53:00,37.0,29.0,30.16,South,182,0.0,0.0,74,0.00,,,0.00,,2013-01-11 17:53:00,
2013-01-11 10:02:00,39.0,30.0,30.16,SSW,193,0.0,4.0,71,0.00,,,0.00,,2013-01-11 18:02:00,
2013-01-11 10:12:00,39.0,30.0,30.16,SSW,193,0.0,4.0,71,0.00,,,0.00,,2013-01-11 18:12:00,
2013-01-11 10:22:00,42.0,27.0,30.16,SSW,202,0.0,0.0,56,0.00,,,0.00,,2013-01-11 18:22:00,
2013-01-11 10:32:00,46.0,27.0,30.16,West,259,0.0,3.0,47,0.00,,,0.00,,2013-01-11 18:32:00,
2013-01-11 10:42:00,46.0,27.0,30.16,West,259,0.0,3.0,47,0.00,,,0.00,,2013-01-11 18:42:00,
2013-01-11 10:53:00,46.0,25.0,30.15,SSW,197,0.0,1.0,43,0.00,,,0.00,,2013-01-11 18:53:00,
2013-01-11 11:02:00,46.0,25.0,30.14,South,182,2.0,5.0,43,0.00,,,0.00,,2013-01-11 19:02:00,
2013-01-11 11:12:00,46.0,25.0,30.14,South,182,2.0,5.0,43,0.00,,,0.00,,2013-01-11 19:12:00,
2013-01-11 11:22:00,46.0,24.0,30.13,WSW,257,3.0,6.0,41,0.00,,,0.00,,2013-01-11 19:22:00,
2013-01-11 11:32:00,46.0,26.0,30.12,SW,235,2.0,6.0,45,0.00,,,0.00,,2013-01-11 19:32:00,
2013-01-11 11:42:00,46.0,26.0,30.12,SW,235,2.0,6.0,45,0.00,,,0.00,,2013-01-11 19:42:00,
2013-01-11 11:53:00,46.0,24.0,30.11,WSW,243,3.0,3.0,42,0.00,,,0.00,,2013-01-11 19:53:00,
2013-01-11 12:02:00,46.0,24.0,30.11,NW,314,2.0,9.0,41,0.00,,,0.00,,2013-01-11 20:02:00,
2013-01-11 12:11:00,46.0,24.0,30.11,NW,314,2.0,9.0,41,0.00,,,0.00,,2013-01-11 20:11:00,
2013-01-11 12:22:00,46.0,24.0,30.09,WSW,239,3.0,7.0,41,0.00,,,0.00,,2013-01-11 20:22:00,
2013-01-11 12:32:00,46.0,23.0,30.09,NW,321,3.0,7.0,40,0.00,,,0.00,,2013-01-11 20:32:00,
2013-01-11 12:42:00,46.0,23.0,30.09,NW,321,3.0,7.0,40,0.00,,,0.00,,2013-01-11 20:42:00,
2013-01-11 12:53:00,47.0,23.0,30.08,West,259,2.0,4.0,39,0.00,,,0.00,,2013-01-11 20:53:00,
2013-01-11 13:02:00,46.0,22.0,30.08,NW,313,3.0,4.0,39,0.00,,,0.00,,2013-01-11 21:02:00,
2013-01-11 13:12:00,46.0,22.0,30.08,NW,313,3.0,4.0,39,0.00,,,0.00,,2013-01-11 21:12:00,
2013-01-11 13:22:00,47.0,23.0,30.06,West,278,3.0,3.0,39,0.00,,,0.00,,2013-01-11 21:22:00,
2013-01-11 13:32:00,47.0,23.0,30.06,SW,230,4.0,10.0,38,0.00,,,0.00,,2013-01-11 21:32:00,
2013-01-11 13:42:00,47.0,23.0,30.06,SW,230,4.0,10.0,38,0.00,,,0.00,,2013-01-11 21:42:00,
2013-01-11 13:53:00,48.0,23.0,30.06,WSW,250,1.0,3.0,37,0.00,,,0.00,,2013-01-11 21:53:00,
2013-01-11 14:02:00,48.0,23.0,30.06,NW,314,0.0,9.0,37,0.00,,,0.00,,2013-01-11 22:02:00,
2013-01-11 14:12:00,48.0,23.0,30.06,NW,314,0.0,9.0,37,0.00,,,0.00,,2013-01-11 22:12:00,
2013-01-11 14:22:00,49.0,22.0,30.06,NW,311,3.0,4.0,34,0.00,,,0.00,,2013-01-11 22:22:00,
2013-01-11 14:32:00,49.0,23.0,30.05,West,281,3.0,4.0,35,0.00,,,0.00,,2013-01-11 22:32:00,
2013-01-11 14:42:00,49.0,23.0,30.05,West,281,3.0,4.0,35,0.00,,,0.00,,2013-01-11 22:42:00,
2013-01-11 14:53:00,50.0,23.0,30.06,West,267,0.0,3.0,35,0.00,,,0.00,,2013-01-11 22:53:00,
2013-01-11 15:02:00,50.0,23.0,30.05,WSW,249,4.0,6.0,35,0.00,,,0.00,,2013-01-11 23:02:00,
2013-01-11 15:12:00,50.0,23.0,30.05,WSW,249,4.0,6.0,35,0.00,,,0.00,,2013-01-11 23:12:00,
2013-01-11 15:22:00,49.0,23.0,30.05,NNW,327,6.0,6.0,35,0.00,,,0.00,,2013-01-11 23:22:00,
2013-01-11 15:32:00,48.0,22.0,30.05,WSW,237,4.0,6.0,36,0.00,,,0.00,,2013-01-11 23:32:00,
2013-01-11 15:42:00,48.0,22.0,30.05,WSW,237,4.0,6.0,36,0.00,,,0.00,,2013-01-11 23:42:00,
2013-01-11 15:53:00,48.0,22.0,30.04,WSW,252,0.0,3.0,36,0.00,,,0.00,,2013-01-11 23:53:00,
2013-01-11 16:02:00,48.0,23.0,30.04,SW,223,1.0,3.0,37,0.00,,,0.00,,2013-01-12 00:02:00,
2013-01-11 16:12:00,47.0,21.0,30.04,NW,311,0.0,3.0,36,0.00,,,0.00,,2013-01-12 00:12:00,
2013-01-11 16:22:00,47.0,21.0,30.04,NW,311,0.0,3.0,36,0.00,,,0.00,,2013-01-12 00:22:00,
2013-01-11 16:32:00,47.0,23.0,30.04,WSW,241,0.0,3.0,38,0.00,,,0.00,,2013-01-12 00:32:00,
2013-01-11 16:42:00,47.0,23.0,30.04,WSW,241,0.0,3.0,38,0.00,,,0.00,,2013-01-12 00:42:00,
2013-01-11 16:52:00,46.0,22.0,30.04,WNW,302,0.0,3.0,38,0.00,,,0.00,,2013-01-12 00:52:00,
2013-01-11 17:02:00,46.0,22.0,30.04,NW,317,2.0,7.0,39,0.00,,,0.00,,2013-01-12 01:02:00,
2013-01-11 17:12:00,46.0,22.0,30.04,NW,317,2.0,7.0,39,0.00,,,0.00,,2013-01-12 01:12:00,
2013-01-11 17:22:00,45.0,23.0,30.04,NNE,21,1.0,5.0,42,0.00,,,0.00,,2013-01-12 01:22:00,
2013-01-11 17:32:00,45.0,23.0,30.04,NE,53,3.0,5.0,41,0.00,,,0.00,,2013-01-12 01:32:00,
2013-01-11 17:42:00,45.0,23.0,30.04,NE,53,3.0,5.0,41,0.00,,,0.00,,2013-01-12 01:42:00,
2013-01-11 17:52:00,44.0,23.0,30.04,NNE,14,3.0,7.0,43,0.00,,,0.00,,2013-01-12 01:52:00,
2013-01-11 18:02:00,44.0,23.0,30.04,NE,52,5.0,7.0,43,0.00,,,0.00,,2013-01-12 02:02:00,
2013-01-11 18:11:00,44.0,23.0,30.04,NE,52,5.0,7.0,43,0.00,,,0.00,,2013-01-12 02:11:00,
2013-01-11 18:22:00,44.0,23.0,30.05,ENE,71,3.0,7.0,44,0.00,,,0.00,,2013-01-12 02:22:00,
2013-01-11 18:32:00,44.0,23.0,30.05,ENE,74,1.0,7.0,44,0.00,,,0.00,,2013-01-12 02:32:00,
2013-01-11 18:42:00,44.0,23.0,30.05,ENE,74,1.0,7.0,44,0.00,,,0.00,,2013-01-12 02:42:00,
2013-01-11 18:53:00,44.0,23.0,30.05,North,360,3.0,5.0,44,0.00,,,0.00,,2013-01-12 02:53:00,
2013-01-11 19:02:00,44.0,23.0,30.05,NE,46,3.0,5.0,44,0.00,,,0.00,,2013-01-12 03:02:00,
2013-01-11 19:11:00,44.0,23.0,30.05,NE,46,3.0,5.0,44,0.00,,,0.00,,2013-01-12 03:11:00,
2013-01-11 19:22:00,43.0,23.0,30.06,North,5,2.0,2.0,45,0.00,,,0.00,,2013-01-12 03:22:00,
2013-01-11 19:32:00,43.0,24.0,30.06,NNE,22,0.0,3.0,46,0.00,,,0.00,,2013-01-12 03:32:00,
2013-01-11 19:42:00,43.0,24.0,30.06,NNE,22,0.0,3.0,46,0.00,,,0.00,,2013-01-12 03:42:00,
2013-01-11 19:53:00,42.0,24.0,30.06,ENE,71,1.0,3.0,49,0.00,,,0.00,,2013-01-12 03:53:00,
2013-01-11 20:02:00,42.0,24.0,30.06,ENE,58,0.0,3.0,48,0.00,,,0.00,,2013-01-12 04:02:00,
2013-01-11 20:11:00,42.0,24.0,30.06,ENE,58,0.0,3.0,48,0.00,,,0.00,,2013-01-12 04:11:00,
2013-01-11 20:22:00,42.0,24.0,30.06,ENE,59,0.0,1.0,49,0.00,,,0.00,,2013-01-12 04:22:00,
2013-01-11 20:32:00,40.0,24.0,30.06,ENE,59,0.0,3.0,52,0.00,,,0.00,,2013-01-12 04:32:00,
2013-01-11 20:42:00,40.0,24.0,30.06,ENE,59,0.0,3.0,52,0.00,,,0.00,,2013-01-12 04:42:00,
2013-01-11 20:52:00,41.0,24.0,30.06,North,10,1.0,1.0,50,0.00,,,0.00,,2013-01-12 04:52:00,
2013-01-11 21:03:00,40.0,23.0,30.06,NE,48,0.0,3.0,50,0.00,,,0.00,,2013-01-12 05:03:00,
2013-01-11 21:12:00,40.0,23.0,30.06,NE,48,0.0,3.0,50,0.00,,,0.00,,2013-01-12 05:12:00,
2013-01-11 21:22:00,41.0,24.0,30.06,ENE,57,0.0,0.0,51,0.00,,,0.00,,2013-01-12 05:22:00,
2013-01-11 21:32:00,40.0,22.0,30.06,North,360,0.0,4.0,49,0.00,,,0.00,,2013-01-12 05:32:00,
2013-01-11 21:42:00,40.0,22.0,30.06,North,360,0.0,4.0,49,0.00,,,0.00,,2013-01-12 05:42:00,
2013-01-11 21:52:00,40.0,23.0,30.07,NE,46,0.0,0.0,51,0.00,,,0.00,,2013-01-12 05:52:00,
2013-01-11 22:02:00,38.0,24.0,30.07,NE,46,0.0,0.0,57,0.00,,,0.00,,2013-01-12 06:02:00,
2013-01-11 22:12:00,38.0,24.0,30.07,NE,46,0.0,0.0,57,0.00,,,0.00,,2013-01-12 06:12:00,
2013-01-11 22:22:00,37.0,25.0,30.06,NNW,327,0.0,0.0,62,0.00,,,0.00,,2013-01-12 06:22:00,
2013-01-11 22:32:00,36.0,25.0,30.06,NNW,327,0.0,0.0,65,0.00,,,0.00,,2013-01-12 06:32:00,
2013-01-11 22:42:00,36.0,25.0,30.06,NNW,327,0.0,0.0,65,0.00,,,0.00,,2013-01-12 06:42:00,
2013-01-11 22:52:00,38.0,23.0,30.07,NW,326,3.0,6.0,55,0.00,,,0.00,,2013-01-12 06:52:00,
2013-01-11 23:02:00,39.0,22.0,30.07,NW,311,1.0,6.0,51,0.00,,,0.00,,2013-01-12 07:02:00,
2013-01-11 23:11:00,37.0,24.0,30.07,NNW,335,0.0,0.0,59,0.00,,,0.00,,2013-01-12 07:11:00,
2013-01-11 23:22:00,37.0,24.0,30.07,NNW,335,0.0,0.0,59,0.00,,,0.00,,2013-01-12 07:22:00,
2013-01-11 23:32:00,36.0,25.0,30.07,NNW,335,0.0,0.0,64,0.00,,,0.00,,2013-01-12 07:32:00,
2013-01-11 23:42:00,36.0,25.0,30.07,NNW,335,0.0,0.0,64,0.00,,,0.00,,2013-01-12 07:42:00,
2013-01-11 23:52:00,34.0,23.0,30.07,SW,222,0.0,0.0,65,0.00,,,0.00,,2013-01-12 07:52:00,